Time;durP1;ratioP1;P1;durP2;ratioP2;P2;SDS_P1;SDS_P2;PMS_P1;PMS_P2;Temp;Humidity;BMP_temperature;BMP_pressure;BME280_temperature;BME280_humidity;BME280_pressure;Samples;Min_cycle;Max_cycle;Signal;HPM_P1;HPM_P2
2021/07/15 00:01:05;;;;;;;22.73;8.38;;;23.90;91.60;;;;;;5072781;28;20634;-84
2021/07/15 00:03:31;;;;;;;25.08;7.47;;;23.90;91.80;;;;;;5090451;28;20028;-83
2021/07/15 00:05:58;;;;;;;18.20;6.97;;;23.90;92.00;;;;;;5090444;28;20050;-83
2021/07/15 00:08:25;;;;;;;19.73;6.85;;;23.90;92.20;;;;;;5065566;28;20461;-84
2021/07/15 00:11:00;;;;;;;21.80;7.57;;;23.90;92.40;;;;;;5089730;28;20530;-83
2021/07/15 00:13:27;;;;;;;16.42;7.25;;;23.80;92.70;;;;;;5090372;28;20024;-84
2021/07/15 00:15:55;;;;;;;17.95;7.10;;;23.80;92.80;;;;;;5072532;28;20496;-83
2021/07/15 00:18:27;;;;;;;21.00;7.05;;;23.80;92.80;;;;;;5071406;28;20036;-83
2021/07/15 00:20:56;;;;;;;20.70;7.22;;;23.70;92.70;;;;;;5072248;28;20031;-82
2021/07/15 00:23:22;;;;;;;23.42;8.85;;;23.70;92.90;;;;;;5071630;28;20016;-80
2021/07/15 00:25:48;;;;;;;18.23;7.80;;;23.60;93.00;;;;;;5089710;28;20766;-82
2021/07/15 00:28:15;;;;;;;15.50;7.22;;;23.60;93.30;;;;;;5071967;28;20027;-82
2021/07/15 00:30:41;;;;;;;15.57;7.20;;;23.50;93.10;;;;;;5071659;28;20055;-80
2021/07/15 00:33:08;;;;;;;20.75;8.10;;;23.60;93.40;;;;;;5071609;28;20527;-82
2021/07/15 00:35:35;;;;;;;16.35;6.45;;;23.60;93.50;;;;;;5071217;28;20126;-81
2021/07/15 00:38:01;;;;;;;16.75;6.80;;;23.60;93.40;;;;;;5070360;28;20036;-81
2021/07/15 00:40:27;;;;;;;17.40;7.05;;;23.60;92.90;;;;;;5089725;28;20115;-82
2021/07/15 00:42:53;;;;;;;21.20;8.43;;;23.70;92.70;;;;;;5089990;28;20099;-83
2021/07/15 00:45:18;;;;;;;20.65;7.25;;;23.70;93.00;;;;;;5090309;28;20081;-83
2021/07/15 00:47:47;;;;;;;18.48;7.90;;;23.70;93.00;;;;;;5090629;28;20567;-83
2021/07/15 00:50:15;;;;;;;14.70;6.75;;;23.70;93.20;;;;;;5071807;28;20024;-82
2021/07/15 00:52:41;;;;;;;16.42;6.38;;;23.80;93.40;;;;;;5089254;28;20557;-83
2021/07/15 00:55:11;;;;;;;21.55;7.53;;;23.70;93.40;;;;;;5090406;28;20032;-83
2021/07/15 00:57:37;;;;;;;17.23;8.25;;;23.70;93.40;;;;;;5071993;28;20020;-82
2021/07/15 01:00:07;;;;;;;16.88;7.40;;;23.70;93.00;;;;;;5072010;28;20221;-83
2021/07/15 01:02:33;;;;;;;19.77;7.57;;;23.60;92.90;;;;;;5071886;28;20028;-83
2021/07/15 01:04:58;;;;;;;19.90;7.93;;;23.60;92.70;;;;;;5072048;28;20114;-84
2021/07/15 01:07:24;;;;;;;17.10;6.30;;;23.60;92.70;;;;;;5072472;28;20114;-82
2021/07/15 01:09:50;;;;;;;15.15;6.65;;;23.60;92.60;;;;;;5089748;28;20035;-83
2021/07/15 01:12:28;;;;;;;22.42;7.47;;;23.60;92.70;;;;;;5090444;28;20024;-84
2021/07/15 01:15:13;;;;;;;21.58;8.13;;;23.60;92.90;;;;;;5090002;28;20012;-83
2021/07/15 01:17:59;;;;;;;19.92;7.95;;;23.60;92.90;;;;;;5071890;28;20031;-84
2021/07/15 01:20:43;;;;;;;14.05;7.75;;;23.60;92.90;;;;;;5071511;28;20040;-84
2021/07/15 01:23:20;;;;;;;13.98;7.15;;;23.50;92.60;;;;;;5071619;28;20075;-82
2021/07/15 01:26:14;;;;;;;22.08;7.70;;;23.40;92.70;;;;;;5071484;28;20028;-81
2021/07/15 01:29:17;;;;;;;19.08;7.65;;;23.40;92.80;;;;;;5071423;28;20039;-83
2021/07/15 01:31:44;;;;;;;14.55;7.63;;;23.40;92.80;;;;;;5070022;28;20032;-81
2021/07/15 01:34:13;;;;;;;23.17;7.07;;;23.40;92.80;;;;;;5088270;28;20022;-81
2021/07/15 01:36:45;;;;;;;15.63;7.88;;;23.40;92.90;;;;;;5069278;28;20059;-80
2021/07/15 01:39:13;;;;;;;19.88;8.05;;;23.40;93.00;;;;;;5070460;28;20024;-84
2021/07/15 01:41:48;;;;;;;19.33;6.82;;;23.40;92.90;;;;;;5071645;28;20058;-85
2021/07/15 01:44:24;;;;;;;18.65;7.15;;;23.30;92.60;;;;;;5090759;28;20024;-84
2021/07/15 01:46:51;;;;;;;13.80;7.55;;;23.40;93.10;;;;;;5070908;28;20028;-81
2021/07/15 01:49:18;;;;;;;18.83;7.10;;;23.30;93.20;;;;;;5069276;28;20146;-80
2021/07/15 01:51:44;;;;;;;16.20;7.82;;;23.30;93.50;;;;;;5070004;28;20031;-81
2021/07/15 01:54:10;;;;;;;23.08;7.57;;;23.30;93.60;;;;;;5087062;28;20070;-82
2021/07/15 01:56:39;;;;;;;25.67;8.15;;;23.30;93.50;;;;;;5069874;28;20028;-87
2021/07/15 01:59:09;;;;;;;22.05;8.45;;;23.30;93.40;;;;;;5088075;28;20070;-79
2021/07/15 02:01:37;;;;;;;19.08;8.05;;;23.30;93.50;;;;;;5069064;28;20412;-84
2021/07/15 02:04:03;;;;;;;19.10;7.95;;;23.20;93.60;;;;;;5087594;28;20028;-81
2021/07/15 02:06:33;;;;;;;29.77;8.68;;;23.20;93.80;;;;;;5069177;28;20032;-82
2021/07/15 02:09:00;;;;;;;20.67;8.20;;;23.10;93.60;;;;;;5068445;28;20055;-81
2021/07/15 02:11:33;;;;;;;18.73;8.35;;;23.00;93.70;;;;;;5069817;28;20172;-81
2021/07/15 02:14:01;;;;;;;22.00;8.40;;;23.00;93.80;;;;;;5087079;28;20040;-81
2021/07/15 02:16:27;;;;;;;18.75;8.35;;;22.90;94.00;;;;;;5069540;28;20028;-79
2021/07/15 02:18:54;;;;;;;20.73;8.25;;;22.90;94.20;;;;;;5069113;28;20032;-81
2021/07/15 02:21:21;;;;;;;18.50;7.18;;;22.90;94.10;;;;;;5069969;28;20036;-82
2021/07/15 02:23:46;;;;;;;22.30;8.65;;;22.90;94.30;;;;;;5087510;28;20028;-83
2021/07/15 02:26:13;;;;;;;18.85;7.50;;;22.80;94.40;;;;;;5069640;28;20093;-81
2021/07/15 02:28:39;;;;;;;14.52;7.45;;;22.70;94.50;;;;;;5070648;28;20713;-82
2021/07/15 02:31:11;;;;;;;26.33;8.35;;;22.70;94.60;;;;;;5069770;28;20097;-82
2021/07/15 02:33:42;;;;;;;24.02;8.25;;;22.80;94.80;;;;;;5087658;28;20028;-82
2021/07/15 02:36:07;;;;;;;13.45;7.05;;;22.70;94.80;;;;;;5069408;28;20058;-82
2021/07/15 02:38:35;;;;;;;18.02;8.23;;;22.60;94.90;;;;;;5069391;28;20067;-82
2021/07/15 02:41:01;;;;;;;21.05;8.27;;;22.60;95.00;;;;;;5068626;28;20028;-82
2021/07/15 02:43:27;;;;;;;18.98;8.55;;;22.60;95.10;;;;;;5069328;28;20035;-81
2021/07/15 02:45:53;;;;;;;18.88;8.63;;;22.60;95.40;;;;;;5087353;28;20020;-82
2021/07/15 02:48:19;;;;;;;15.98;7.43;;;22.60;95.40;;;;;;5068688;28;20143;-80
2021/07/15 02:50:46;;;;;;;24.70;8.40;;;22.60;95.50;;;;;;5087079;28;20021;-81
2021/07/15 02:53:12;;;;;;;22.45;8.60;;;22.60;95.60;;;;;;5087107;28;20107;-83
2021/07/15 02:55:41;;;;;;;28.33;10.02;;;22.50;95.80;;;;;;5069706;28;20111;-83
2021/07/15 02:58:12;;;;;;;22.70;8.38;;;22.50;96.00;;;;;;5070409;28;20135;-83
2021/07/15 03:00:53;;;;;;;16.35;8.80;;;22.40;96.20;;;;;;5087424;28;20043;-82
2021/07/15 03:03:52;;;;;;;25.83;9.15;;;22.40;96.20;;;;;;5069234;28;20039;-82
2021/07/15 03:06:31;;;;;;;19.20;8.77;;;22.40;96.20;;;;;;5068508;28;20503;-81
2021/07/15 03:09:00;;;;;;;26.98;8.55;;;22.30;96.40;;;;;;5067967;28;20032;-81
2021/07/15 03:11:50;;;;;;;28.63;9.35;;;22.20;96.60;;;;;;5068799;28;20029;-81
2021/07/15 03:14:17;;;;;;;18.80;8.38;;;22.20;96.70;;;;;;5068410;28;20063;-82
2021/07/15 03:16:45;;;;;;;16.77;8.50;;;22.20;96.60;;;;;;5068448;28;20024;-81
2021/07/15 03:19:13;;;;;;;19.52;9.20;;;22.10;96.60;;;;;;5068798;28;20032;-81
2021/07/15 03:21:42;;;;;;;18.30;9.30;;;22.10;96.60;;;;;;5086087;28;20799;-81
2021/07/15 03:24:13;;;;;;;21.15;8.20;;;22.10;96.80;;;;;;5068243;28;20198;-81
2021/07/15 03:26:42;;;;;;;17.25;9.02;;;22.10;96.80;;;;;;5086532;28;20063;-80
2021/07/15 03:29:09;;;;;;;22.52;9.13;;;22.10;96.90;;;;;;5068165;28;20039;-79
2021/07/15 03:31:35;;;;;;;25.27;9.45;;;22.10;96.90;;;;;;5086095;28;20112;-81
2021/07/15 03:34:01;;;;;;;23.30;9.15;;;22.00;97.00;;;;;;5068103;28;20024;-80
2021/07/15 03:36:27;;;;;;;23.58;9.38;;;22.00;96.90;;;;;;5067586;28;20120;-79
2021/07/15 03:38:54;;;;;;;23.30;9.13;;;22.00;96.90;;;;;;5086331;28;20039;-78
2021/07/15 03:41:22;;;;;;;19.40;8.48;;;22.00;96.90;;;;;;5067912;28;20073;-79
2021/07/15 03:43:47;;;;;;;29.27;7.97;;;22.10;96.90;;;;;;5085439;28;20035;-79
2021/07/15 03:46:14;;;;;;;13.82;7.93;;;22.10;96.90;;;;;;5068240;28;20024;-80
2021/07/15 03:48:42;;;;;;;23.75;8.68;;;22.10;96.90;;;;;;5067845;28;20161;-80
2021/07/15 03:51:10;;;;;;;16.08;8.02;;;22.10;96.80;;;;;;5085932;28;20444;-80
2021/07/15 03:53:38;;;;;;;18.02;8.48;;;22.10;96.80;;;;;;5088965;28;20032;-79
2021/07/15 03:56:06;;;;;;;21.52;9.23;;;22.20;96.60;;;;;;5071503;28;20027;-79
2021/07/15 03:58:36;;;;;;;19.42;8.93;;;22.20;96.30;;;;;;5071464;28;20028;-78
2021/07/15 04:01:04;;;;;;;25.67;8.82;;;22.20;96.30;;;;;;5071382;28;20084;-79
2021/07/15 04:03:32;;;;;;;19.73;8.23;;;22.30;96.40;;;;;;5089227;28;20781;-79
2021/07/15 04:06:00;;;;;;;24.50;9.27;;;22.30;96.30;;;;;;5071183;28;20040;-79
2021/07/15 04:08:28;;;;;;;23.90;8.07;;;22.30;96.10;;;;;;5071328;28;20317;-79
2021/07/15 04:10:56;;;;;;;29.42;8.70;;;22.30;95.90;;;;;;5089449;28;20051;-79
2021/07/15 04:13:25;;;;;;;18.75;7.85;;;22.40;95.80;;;;;;5070504;28;20028;-79
2021/07/15 04:15:54;;;;;;;23.92;8.50;;;22.40;95.70;;;;;;5071222;28;20527;-78
2021/07/15 04:18:34;;;;;;;29.48;8.50;;;22.60;95.50;;;;;;5070774;28;20119;-78
2021/07/15 04:21:00;;;;;;;28.23;8.20;;;22.80;94.80;;;;;;5088452;28;20032;-79
2021/07/15 04:23:29;;;;;;;21.23;7.82;;;22.90;94.70;;;;;;5071185;28;20098;-79
2021/07/15 04:25:55;;;;;;;25.33;9.98;;;23.10;94.80;;;;;;5089317;28;20032;-80
2021/07/15 04:28:22;;;;;;;29.17;8.82;;;23.20;95.00;;;;;;5088774;28;20276;-79
2021/07/15 04:30:51;;;;;;;30.92;8.73;;;23.20;94.90;;;;;;5089437;28;20028;-80
2021/07/15 04:33:17;;;;;;;36.22;11.55;;;23.10;95.10;;;;;;5090678;28;20092;-82
2021/07/15 04:35:43;;;;;;;36.33;16.80;;;22.80;96.30;;;;;;5072331;28;20389;-81
2021/07/15 04:38:09;;;;;;;30.92;15.65;;;22.60;98.40;;;;;;5072140;28;20104;-85
2021/07/15 04:40:35;;;;;;;30.70;12.68;;;22.60;99.10;;;;;;5092733;28;20039;-87
2021/07/15 04:43:09;;;;;;;35.13;14.50;;;22.60;99.10;;;;;;5066747;28;20029;-79
2021/07/15 04:45:39;;;;;;;32.50;13.93;;;22.70;99.20;;;;;;5066475;28;20031;-79
2021/07/15 04:48:06;;;;;;;21.42;12.18;;;22.70;99.50;;;;;;5066758;28;20059;-80
2021/07/15 04:50:33;;;;;;;25.98;13.30;;;22.90;99.50;;;;;;5070523;28;20602;-81
2021/07/15 04:53:05;;;;;;;30.35;13.43;;;23.20;99.10;;;;;;5089013;28;20180;-82
2021/07/15 04:55:32;;;;;;;35.08;11.30;;;23.50;98.10;;;;;;5071734;28;20457;-81
2021/07/15 04:58:00;;;;;;;28.90;11.40;;;23.60;97.20;;;;;;5070827;28;20028;-80
2021/07/15 05:00:26;;;;;;;26.10;10.35;;;23.50;97.70;;;;;;5088893;28;20556;-81
2021/07/15 05:03:09;;;;;;;23.17;9.63;;;23.50;97.00;;;;;;5089319;28;20528;-82
2021/07/15 05:05:35;;;;;;;29.92;10.18;;;23.60;96.70;;;;;;5070029;28;20553;-82
2021/07/15 05:08:01;;;;;;;29.02;11.80;;;23.60;97.20;;;;;;5088680;28;20023;-78
2021/07/15 05:10:27;;;;;;;22.02;9.95;;;23.70;97.20;;;;;;5088490;28;20040;-80
2021/07/15 05:12:52;;;;;;;30.38;10.23;;;23.90;97.00;;;;;;5088614;28;20080;-80
2021/07/15 05:15:18;;;;;;;27.67;10.35;;;24.20;96.40;;;;;;5088080;28;20435;-80
2021/07/15 05:17:44;;;;;;;21.17;10.40;;;24.50;96.10;;;;;;5070341;28;20128;-79
2021/07/15 05:20:10;;;;;;;26.35;9.63;;;24.80;95.60;;;;;;5069532;28;20633;-79
2021/07/15 05:22:37;;;;;;;27.63;9.07;;;25.10;95.60;;;;;;5069448;28;20024;-80
2021/07/15 05:25:05;;;;;;;14.43;7.35;;;25.50;94.80;;;;;;5069678;28;20526;-80
2021/07/15 05:27:31;;;;;;;19.30;9.15;;;25.70;93.00;;;;;;5088151;28;20050;-80
2021/07/15 05:29:57;;;;;;;20.83;8.65;;;25.90;92.10;;;;;;5087879;28;20016;-82
2021/07/15 05:32:22;;;;;;;15.93;8.25;;;25.80;91.30;;;;;;5087841;28;20024;-79
2021/07/15 05:34:48;;;;;;;15.60;8.07;;;25.70;92.70;;;;;;5068955;28;20050;-79
2021/07/15 05:37:14;;;;;;;15.90;8.85;;;25.50;93.30;;;;;;5069346;28;20084;-79
2021/07/15 05:39:43;;;;;;;15.75;8.88;;;25.40;93.70;;;;;;5087887;28;20143;-79
2021/07/15 05:42:10;;;;;;;18.02;9.25;;;25.40;95.40;;;;;;5069453;28;20024;-80
2021/07/15 05:44:36;;;;;;;18.50;9.35;;;25.50;96.00;;;;;;5087450;28;20024;-80
2021/07/15 05:47:02;;;;;;;24.85;8.98;;;25.60;95.50;;;;;;5087660;28;20032;-79
2021/07/15 05:49:27;;;;;;;29.48;8.85;;;25.50;95.50;;;;;;5087700;28;20024;-80
2021/07/15 05:51:53;;;;;;;13.77;7.93;;;25.50;95.20;;;;;;5087164;28;20038;-80
2021/07/15 05:54:19;;;;;;;19.08;8.30;;;25.30;95.30;;;;;;5069128;28;20047;-79
2021/07/15 05:56:44;;;;;;;21.27;9.23;;;25.00;95.70;;;;;;5087667;28;20020;-81
2021/07/15 05:59:10;;;;;;;18.00;10.05;;;24.80;96.10;;;;;;5087354;28;20777;-79
2021/07/15 06:01:36;;;;;;;20.85;9.10;;;24.60;96.40;;;;;;5069083;28;20024;-79
2021/07/15 06:04:02;;;;;;;23.35;8.55;;;24.40;96.50;;;;;;5087401;28;20035;-79
2021/07/15 06:06:28;;;;;;;23.60;10.25;;;24.30;96.70;;;;;;5068438;28;20043;-80
2021/07/15 06:08:53;;;;;;;27.00;10.50;;;24.20;97.10;;;;;;5068966;28;20105;-80
2021/07/15 06:11:20;;;;;;;33.78;9.68;;;24.00;97.40;;;;;;5069210;28;20067;-80
2021/07/15 06:13:45;;;;;;;31.92;12.25;;;23.80;97.80;;;;;;5087202;28;20032;-80
2021/07/15 06:16:11;;;;;;;30.42;11.75;;;23.80;98.10;;;;;;5068399;28;20069;-78
2021/07/15 06:18:37;;;;;;;32.85;11.80;;;23.60;98.50;;;;;;5086749;28;20032;-80
2021/07/15 06:21:04;;;;;;;26.75;10.30;;;23.40;98.90;;;;;;5068060;28;20071;-79
2021/07/15 06:23:32;;;;;;;33.35;11.43;;;23.20;99.30;;;;;;5086779;28;20051;-80
2021/07/15 06:25:58;;;;;;;30.77;11.45;;;23.10;99.80;;;;;;5087367;28;20077;-80
2021/07/15 06:28:23;;;;;;;17.25;10.48;;;23.10;99.90;;;;;;5087122;28;20024;-80
2021/07/15 06:30:50;;;;;;;22.25;9.73;;;23.10;99.90;;;;;;5069094;28;20042;-79
2021/07/15 06:33:15;;;;;;;15.43;8.60;;;23.10;99.90;;;;;;5068614;28;20024;-81
2021/07/15 06:35:41;;;;;;;27.83;11.25;;;23.30;99.90;;;;;;5068123;28;20093;-80
2021/07/15 06:38:08;;;;;;;26.23;11.10;;;23.40;99.90;;;;;;5086689;28;20082;-80
2021/07/15 06:40:34;;;;;;;18.55;10.48;;;23.50;99.90;;;;;;5068392;28;20527;-79
2021/07/15 06:42:59;;;;;;;23.45;9.82;;;23.60;99.90;;;;;;5068486;28;20028;-80
2021/07/15 06:45:25;;;;;;;23.40;9.05;;;24.10;99.90;;;;;;5069005;28;20039;-81
2021/07/15 06:47:51;;;;;;;23.80;9.63;;;25.40;98.40;;;;;;5086520;28;20031;-81
2021/07/15 06:50:18;;;;;;;20.13;8.40;;;27.10;94.80;;;;;;5068648;28;20362;-80
2021/07/15 06:52:44;;;;;;;19.02;8.48;;;28.70;90.90;;;;;;5086614;28;20020;-81
2021/07/15 06:55:11;;;;;;;23.45;8.70;;;29.80;85.00;;;;;;5068505;28;20016;-80
2021/07/15 06:57:38;;;;;;;18.48;8.43;;;30.40;79.80;;;;;;5068702;28;20067;-80
2021/07/15 07:00:10;;;;;;;23.20;8.20;;;30.80;77.00;;;;;;5085869;28;20127;-81
2021/07/15 07:02:43;;;;;;;15.70;7.07;;;30.90;74.10;;;;;;5086633;28;20024;-80
2021/07/15 07:05:10;;;;;;;17.77;8.70;;;30.60;74.10;;;;;;5068103;28;20522;-81
2021/07/15 07:07:37;;;;;;;24.45;8.27;;;30.10;77.40;;;;;;5085916;28;20032;-80
2021/07/15 07:10:08;;;;;;;20.55;7.82;;;30.00;78.20;;;;;;5068142;28;20036;-81
2021/07/15 07:12:33;;;;;;;14.02;6.18;;;29.90;77.70;;;;;;5086750;28;20035;-81
2021/07/15 07:14:59;;;;;;;19.27;8.18;;;29.60;78.40;;;;;;5086705;28;20118;-80
2021/07/15 07:17:25;;;;;;;26.33;8.45;;;29.00;79.80;;;;;;5068205;28;20381;-80
2021/07/15 07:19:51;;;;;;;16.67;7.07;;;28.90;81.50;;;;;;5085885;28;20040;-81
2021/07/15 07:22:16;;;;;;;20.17;7.50;;;28.80;82.50;;;;;;5086527;28;20047;-81
2021/07/15 07:24:42;;;;;;;23.17;7.22;;;28.60;83.20;;;;;;5068074;28;20031;-81
2021/07/15 07:27:08;;;;;;;18.17;7.22;;;28.60;83.90;;;;;;5087286;28;20028;-82
2021/07/15 07:29:33;;;;;;;15.82;6.93;;;28.60;84.00;;;;;;5090278;28;20019;-80
2021/07/15 07:31:59;;;;;;;18.65;8.23;;;28.90;83.30;;;;;;5072484;28;20115;-82
2021/07/15 07:34:25;;;;;;;30.65;7.88;;;29.10;82.70;;;;;;5089322;28;20089;-81
2021/07/15 07:36:50;;;;;;;15.65;5.90;;;29.00;83.10;;;;;;5090243;28;20136;-81
2021/07/15 07:39:16;;;;;;;21.92;6.70;;;28.90;83.60;;;;;;5071769;28;20088;-80
2021/07/15 07:41:42;;;;;;;11.00;5.45;;;28.90;83.80;;;;;;5072099;28;20034;-80
2021/07/15 07:44:08;;;;;;;17.58;5.45;;;29.10;81.30;;;;;;5090183;28;20107;-81
2021/07/15 07:46:34;;;;;;;18.77;5.15;;;29.20;78.90;;;;;;5090278;28;20187;-81
2021/07/15 07:49:00;;;;;;;13.02;5.20;;;29.10;78.60;;;;;;5071101;28;20077;-80
2021/07/15 07:51:26;;;;;;;16.35;6.38;;;28.90;79.70;;;;;;5071491;28;20324;-81
2021/07/15 07:53:52;;;;;;;14.48;4.85;;;28.80;79.60;;;;;;5071529;28;20045;-80
2021/07/15 07:56:18;;;;;;;12.65;4.75;;;28.80;77.50;;;;;;5089742;28;20092;-81
2021/07/15 07:58:44;;;;;;;10.70;3.40;;;28.90;75.10;;;;;;5071516;28;20492;-81
2021/07/15 08:01:10;;;;;;;11.23;3.20;;;29.10;71.20;;;;;;5071095;28;20031;-81
2021/07/15 08:03:36;;;;;;;9.43;3.05;;;29.00;68.10;;;;;;5071459;28;20549;-79
2021/07/15 08:06:01;;;;;;;10.57;4.07;;;28.80;67.60;;;;;;5071757;28;20473;-82
2021/07/15 08:08:28;;;;;;;13.27;3.20;;;28.40;68.70;;;;;;5089428;28;20393;-80
2021/07/15 08:10:54;;;;;;;9.40;3.35;;;28.40;68.80;;;;;;5071372;28;20541;-80
2021/07/15 08:13:19;;;;;;;8.85;3.45;;;28.60;68.20;;;;;;5071374;28;20016;-80
2021/07/15 08:15:45;;;;;;;9.80;2.53;;;29.30;66.50;;;;;;5088620;28;20481;-81
2021/07/15 08:18:11;;;;;;;12.43;3.05;;;29.90;61.70;;;;;;5089294;28;20028;-80
2021/07/15 08:20:37;;;;;;;13.85;3.92;;;30.10;61.40;;;;;;5089012;28;20043;-80
2021/07/15 08:23:04;;;;;;;14.57;2.88;;;30.20;62.60;;;;;;5088908;28;20032;-80
2021/07/15 08:25:30;;;;;;;14.80;3.97;;;30.20;62.80;;;;;;5089748;28;20043;-80
2021/07/15 08:27:56;;;;;;;9.00;3.08;;;30.20;63.30;;;;;;5071106;28;20023;-79
2021/07/15 08:30:22;;;;;;;10.90;3.40;;;30.10;63.00;;;;;;5088241;28;20088;-80
2021/07/15 08:32:48;;;;;;;9.85;4.00;;;30.30;63.40;;;;;;5069958;28;20349;-80
2021/07/15 08:35:14;;;;;;;11.00;3.13;;;30.40;61.50;;;;;;5087851;28;20028;-80
2021/07/15 08:37:40;;;;;;;8.07;3.10;;;30.40;59.40;;;;;;5087522;28;20052;-80
2021/07/15 08:40:07;;;;;;;8.48;3.58;;;30.30;59.80;;;;;;5087387;28;20542;-80
2021/07/15 08:42:36;;;;;;;10.70;3.38;;;30.30;59.30;;;;;;5070686;28;20028;-80
2021/07/15 08:45:06;;;;;;;14.65;3.05;;;30.30;57.80;;;;;;5070817;28;20676;-78
2021/07/15 08:47:35;;;;;;;7.75;2.65;;;30.30;57.90;;;;;;5070545;28;20020;-79
2021/07/15 08:50:01;;;;;;;12.07;3.05;;;30.10;59.10;;;;;;5088530;28;20069;-79
2021/07/15 08:52:27;;;;;;;8.30;2.95;;;29.80;60.00;;;;;;5070603;28;20024;-80
2021/07/15 08:55:00;;;;;;;9.98;2.92;;;29.40;60.30;;;;;;5070541;28;20082;-81
2021/07/15 08:57:25;;;;;;;9.32;2.95;;;28.90;62.00;;;;;;5088842;28;20016;-79
2021/07/15 08:59:51;;;;;;;9.65;2.47;;;28.50;65.00;;;;;;5070253;28;20549;-81
2021/07/15 09:02:22;;;;;;;15.50;4.65;;;28.30;66.70;;;;;;5069946;28;20020;-80
2021/07/15 09:04:49;;;;;;;4.65;2.67;;;28.10;67.70;;;;;;5068835;28;20510;-80
2021/07/15 09:07:16;;;;;;;7.45;2.83;;;28.00;69.00;;;;;;5087837;28;20055;-80
2021/07/15 09:09:45;;;;;;;10.70;3.78;;;28.20;70.00;;;;;;5069357;28;20032;-79
2021/07/15 09:12:12;;;;;;;10.70;3.50;;;28.60;68.80;;;;;;5070212;28;20065;-78
2021/07/15 09:14:46;;;;;;;10.70;3.17;;;29.50;66.20;;;;;;5069797;28;20020;-81
2021/07/15 09:17:12;;;;;;;14.68;3.58;;;30.70;61.40;;;;;;5088826;28;20100;-80
2021/07/15 09:19:39;;;;;;;11.75;3.33;;;31.20;57.40;;;;;;5088280;28;20036;-82
2021/07/15 09:22:08;;;;;;;7.63;2.67;;;32.00;58.20;;;;;;5069862;28;20473;-80
2021/07/15 09:24:39;;;;;;;10.60;3.63;;;32.80;56.10;;;;;;5069979;28;20361;-80
2021/07/15 09:27:46;;;;;;;14.13;2.70;;;33.40;54.80;;;;;;5069705;28;20048;-80
2021/07/15 09:30:14;;;;;;;6.45;2.95;;;34.00;51.60;;;;;;5021241;28;20039;-80
2021/07/15 09:32:56;;;;;;;11.40;2.92;;;34.30;47.70;;;;;;5087593;28;20113;-79
2021/07/15 09:35:30;;;;;;;10.23;3.35;;;34.60;45.90;;;;;;5069530;28;20024;-80
2021/07/15 09:38:06;;;;;;;10.63;3.00;;;34.40;46.50;;;;;;5087290;28;20109;-80
2021/07/15 09:40:48;;;;;;;9.55;2.83;;;34.60;45.40;;;;;;5087814;28;20571;-81
2021/07/15 09:43:42;;;;;;;8.60;2.40;;;34.90;45.20;;;;;;5087817;28;20020;-81
2021/07/15 09:46:15;;;;;;;9.65;2.53;;;35.40;42.40;;;;;;5086447;28;20512;-79
2021/07/15 09:48:43;;;;;;;7.90;2.33;;;35.90;39.90;;;;;;5068902;28;20138;-81
2021/07/15 09:51:13;;;;;;;8.77;2.17;;;35.90;41.00;;;;;;5069372;28;20032;-81
2021/07/15 09:53:41;;;;;;;11.82;2.97;;;35.90;41.00;;;;;;5069734;28;20455;-80
2021/07/15 09:57:28;;;;;;;8.60;2.40;;;36.40;39.90;;;;;;5124854;27;20419;-83
2021/07/15 09:59:56;;;;;;;9.52;2.60;;;36.70;39.20;;;;;;5123504;28;20693;-80
2021/07/15 10:02:31;;;;;;;6.45;2.67;;;36.80;38.80;;;;;;5124155;27;20034;-81
2021/07/15 10:04:58;;;;;;;11.80;2.92;;;36.80;39.60;;;;;;5121814;28;20031;-80
2021/07/15 10:07:26;;;;;;;7.85;2.33;;;37.00;40.30;;;;;;5123889;27;20024;-81
2021/07/15 10:10:18;;;;;;;8.40;2.97;;;36.90;39.40;;;;;;5123665;27;20046;-81
2021/07/15 10:12:44;;;;;;;9.50;3.00;;;36.50;38.20;;;;;;5123502;28;20731;-81
2021/07/15 10:15:12;;;;;;;12.40;2.67;;;36.00;39.30;;;;;;5122924;28;20115;-81
2021/07/15 10:17:45;;;;;;;7.82;2.55;;;35.70;39.10;;;;;;5123613;27;20023;-81
2021/07/15 10:20:18;;;;;;;13.43;2.90;;;35.20;37.60;;;;;;5124288;28;20031;-80
2021/07/15 10:22:53;;;;;;;7.95;2.35;;;34.80;40.50;;;;;;5124122;27;20027;-79
2021/07/15 10:25:19;;;;;;;6.15;2.20;;;34.40;42.10;;;;;;5124116;27;20020;-80
2021/07/15 10:27:45;;;;;;;11.07;3.33;;;34.00;40.40;;;;;;5122933;28;20590;-81
2021/07/15 10:30:12;;;;;;;5.05;1.83;;;33.80;41.00;;;;;;5123161;28;20122;-82
2021/07/15 10:32:38;;;;;;;12.10;2.95;;;33.60;42.20;;;;;;5122257;28;20115;-80
2021/07/15 10:35:09;;;;;;;10.27;2.88;;;33.60;42.80;;;;;;5123959;27;20481;-81
2021/07/15 10:37:44;;;;;;;12.88;2.63;;;33.60;42.80;;;;;;5121910;28;20063;-80
2021/07/15 10:40:15;;;;;;;10.70;2.55;;;33.60;43.00;;;;;;5123017;28;20408;-81
2021/07/15 10:42:41;;;;;;;12.85;3.20;;;33.70;42.10;;;;;;5123920;27;20019;-81
2021/07/15 10:45:09;;;;;;;7.55;2.30;;;33.90;42.60;;;;;;5122695;28;20479;-82
2021/07/15 10:47:36;;;;;;;5.40;1.95;;;33.90;43.60;;;;;;5122147;28;20047;-81
2021/07/15 10:50:04;;;;;;;7.20;2.63;;;34.00;43.60;;;;;;5123554;27;20037;-82
2021/07/15 10:52:31;;;;;;;8.45;2.60;;;33.80;41.20;;;;;;5122497;28;20043;-81
2021/07/15 10:55:00;;;;;;;8.32;2.17;;;33.80;41.60;;;;;;5122956;27;20031;-79
2021/07/15 10:57:26;;;;;;;8.98;2.08;;;33.60;41.60;;;;;;5123820;27;20069;-81
2021/07/15 10:59:52;;;;;;;6.95;1.90;;;33.50;40.10;;;;;;5122151;28;20027;-80
2021/07/15 11:02:25;;;;;;;5.68;1.80;;;33.40;37.00;;;;;;5121472;28;20449;-81
2021/07/15 11:04:53;;;;;;;6.63;1.75;;;33.30;36.40;;;;;;5122298;28;20118;-80
2021/07/15 11:07:20;;;;;;;6.40;2.40;;;33.20;38.00;;;;;;5116763;27;20028;-81
2021/07/15 11:09:47;;;;;;;5.38;1.65;;;33.30;38.10;;;;;;5108307;28;20138;-81
2021/07/15 11:12:29;;;;;;;6.90;2.22;;;33.30;37.30;;;;;;5109576;28;20105;-80
2021/07/15 11:15:08;;;;;;;5.38;1.27;;;33.30;35.80;;;;;;5107771;28;20169;-81
2021/07/15 11:17:42;;;;;;;4.57;1.60;;;33.20;37.20;;;;;;5107824;28;20035;-80
2021/07/15 11:20:12;;;;;;;14.73;2.83;;;33.10;37.50;;;;;;5109485;28;20015;-80
2021/07/15 11:22:57;;;;;;;5.18;1.73;;;33.20;38.40;;;;;;5109597;28;20088;-79
2021/07/15 11:25:28;;;;;;;7.38;2.50;;;33.10;37.90;;;;;;5108297;28;20027;-81
2021/07/15 11:28:00;;;;;;;7.28;1.58;;;33.00;38.30;;;;;;5109227;28;20114;-79
2021/07/15 11:30:47;;;;;;;6.85;2.38;;;33.00;39.30;;;;;;5108997;28;20059;-81
2021/07/15 11:33:21;;;;;;;9.25;2.78;;;32.90;39.10;;;;;;5108905;28;20080;-81
2021/07/15 11:35:54;;;;;;;5.28;1.90;;;33.10;38.80;;;;;;5107442;28;20027;-81
2021/07/15 11:38:34;;;;;;;7.20;2.15;;;33.30;38.00;;;;;;5109377;28;20027;-80
2021/07/15 11:41:13;;;;;;;4.88;1.85;;;33.20;37.90;;;;;;5108196;28;20062;-80
2021/07/15 11:43:48;;;;;;;7.43;2.55;;;33.20;38.70;;;;;;5107809;28;20063;-81
2021/07/15 11:46:16;;;;;;;12.52;2.28;;;33.10;37.10;;;;;;5107543;28;20080;-79
2021/07/15 11:48:50;;;;;;;10.98;2.17;;;33.00;37.80;;;;;;5107549;28;20038;-81
2021/07/15 11:51:37;;;;;;;11.98;1.75;;;33.20;36.50;;;;;;5107542;28;20053;-81
2021/07/15 11:54:18;;;;;;;8.35;2.00;;;33.10;35.30;;;;;;5107708;28;20031;-81
2021/07/15 11:56:45;;;;;;;5.70;1.38;;;33.00;37.40;;;;;;5108757;27;20051;-80
2021/07/15 11:59:11;;;;;;;8.75;2.08;;;32.90;37.80;;;;;;5107252;28;20072;-80
2021/07/15 12:01:37;;;;;;;5.35;1.52;;;33.00;38.50;;;;;;5108351;28;20492;-81
2021/07/15 12:04:10;;;;;;;6.40;2.00;;;33.10;38.00;;;;;;5107457;28;20081;-79
2021/07/15 12:06:38;;;;;;;7.82;2.00;;;33.20;37.80;;;;;;5107175;28;20027;-80
2021/07/15 12:09:08;;;;;;;5.00;1.83;;;33.20;35.30;;;;;;5108664;28;20031;-79
2021/07/15 12:11:35;;;;;;;10.38;2.35;;;33.20;35.40;;;;;;5108527;28;20147;-80
2021/07/15 12:14:02;;;;;;;4.07;1.60;;;33.20;34.80;;;;;;5107254;28;20089;-80
2021/07/15 12:16:29;;;;;;;5.07;2.28;;;33.10;34.60;;;;;;5106746;28;20043;-80
2021/07/15 12:19:04;;;;;;;7.40;1.75;;;33.20;34.50;;;;;;5106147;28;20043;-81
2021/07/15 12:21:30;;;;;;;5.25;1.50;;;33.30;34.30;;;;;;5107379;28;20023;-81
2021/07/15 12:23:57;;;;;;;4.70;1.67;;;33.40;34.30;;;;;;5107275;28;20642;-81
2021/07/15 12:26:23;;;;;;;3.63;1.38;;;33.50;36.10;;;;;;5106794;28;20035;-81
2021/07/15 12:28:49;;;;;;;8.90;2.58;;;33.60;35.40;;;;;;5108270;28;20020;-81
2021/07/15 12:31:18;;;;;;;9.10;2.58;;;33.70;34.90;;;;;;5106591;28;20038;-80
2021/07/15 12:33:50;;;;;;;4.15;1.75;;;33.60;35.30;;;;;;5106864;28;20074;-80
2021/07/15 12:36:23;;;;;;;7.65;1.90;;;33.70;36.70;;;;;;5106795;28;20101;-81
2021/07/15 12:38:57;;;;;;;11.10;1.73;;;33.80;34.40;;;;;;5106816;28;20076;-79
2021/07/15 12:41:27;;;;;;;6.80;2.08;;;33.80;33.40;;;;;;5107585;28;20488;-80
2021/07/15 12:44:04;;;;;;;3.90;1.38;;;33.40;33.60;;;;;;5106567;28;20035;-80
2021/07/15 12:46:38;;;;;;;8.50;1.85;;;33.20;35.90;;;;;;5107593;28;20383;-79
2021/07/15 12:49:06;;;;;;;9.43;2.05;;;33.40;36.40;;;;;;5106331;28;20019;-80